createdAt,value
2022-09-15T00:00:47.043Z,100.00
2022-09-15T00:03:13.659Z,100.00
2022-09-15T00:05:40.423Z,100.00
2022-09-15T00:08:07.002Z,100.00
2022-09-15T00:10:33.512Z,100.00
2022-09-15T00:13:00.069Z,100.00
2022-09-15T00:15:26.591Z,100.00
2022-09-15T00:17:54.467Z,100.00
2022-09-15T00:20:21.803Z,100.00
2022-09-15T00:22:49.115Z,100.00
2022-09-15T00:25:15.681Z,100.00
2022-09-15T00:27:42.194Z,100.00
2022-09-15T00:30:09.497Z,100.00
2022-09-15T00:32:36.013Z,100.00
2022-09-15T00:35:04.437Z,100.00
2022-09-15T00:37:31.087Z,100.00
2022-09-15T00:39:57.645Z,100.00
2022-09-15T00:42:24.173Z,100.00
2022-09-15T00:44:54.334Z,100.00
2022-09-15T00:47:23.666Z,100.00
2022-09-15T00:49:58.399Z,100.00
2022-09-15T00:52:31.965Z,100.00
2022-09-15T00:55:03.404Z,100.00
2022-09-15T00:57:34.544Z,100.00
2022-09-15T01:00:06.663Z,100.00
2022-09-15T01:02:35.776Z,100.00
2022-09-15T01:05:07.958Z,100.00
2022-09-15T01:07:41.261Z,100.00
2022-09-15T01:10:12.189Z,100.00
2022-09-15T01:12:40.321Z,100.00
2022-09-15T01:15:07.700Z,100.00
2022-09-15T01:17:44.460Z,100.00
2022-09-15T01:20:34.170Z,100.00
2022-09-15T01:23:23.443Z,100.00
2022-09-15T01:26:10.590Z,100.00
2022-09-15T01:29:02.759Z,100.00
2022-09-15T01:31:38.130Z,100.00
2022-09-15T01:34:09.767Z,100.00
2022-09-15T01:36:42.852Z,100.00
2022-09-15T01:39:15.836Z,100.00
2022-09-15T01:41:46.425Z,100.00
2022-09-15T01:44:18.428Z,100.00
2022-09-15T01:46:50.602Z,100.00
2022-09-15T01:49:21.342Z,100.00
2022-09-15T01:51:50.864Z,100.00
2022-09-15T01:54:22.138Z,100.00
2022-09-15T01:56:48.688Z,100.00
2022-09-15T01:59:15.577Z,100.00
2022-09-15T02:01:45.904Z,100.00
2022-09-15T02:04:17.456Z,100.00
2022-09-15T02:06:51.685Z,100.00
2022-09-15T02:09:22.391Z,100.00
2022-09-15T02:11:54.123Z,100.00
2022-09-15T02:14:32.041Z,100.00
2022-09-15T02:16:58.553Z,100.00
2022-09-15T02:19:32.060Z,100.00
2022-09-15T02:22:03.787Z,100.00
2022-09-15T02:24:34.673Z,100.00
2022-09-15T02:27:03.621Z,100.00
2022-09-15T02:29:33.838Z,100.00
2022-09-15T02:32:07.073Z,100.00
2022-09-15T02:34:40.489Z,100.00
2022-09-15T02:37:08.307Z,100.00
2022-09-15T02:39:37.534Z,100.00
2022-09-15T02:42:04.539Z,100.00
2022-09-15T02:44:31.074Z,100.00
2022-09-15T02:46:57.879Z,100.00
2022-09-15T02:49:24.387Z,100.00
2022-09-15T02:51:52.314Z,100.00
2022-09-15T02:54:19.346Z,100.00
2022-09-15T02:56:46.342Z,100.00
2022-09-15T02:59:12.942Z,100.00
2022-09-15T03:01:39.849Z,100.00
2022-09-15T03:04:06.526Z,100.00
2022-09-15T03:06:33.403Z,100.00
2022-09-15T03:09:03.559Z,100.00
2022-09-15T03:11:30.971Z,100.00
2022-09-15T03:13:59.401Z,100.00
2022-09-15T03:16:27.057Z,100.00
2022-09-15T03:18:54.501Z,100.00
2022-09-15T03:21:21.036Z,100.00
2022-09-15T03:23:47.675Z,100.00
2022-09-15T03:26:15.615Z,100.00
2022-09-15T03:28:42.156Z,100.00
2022-09-15T03:31:09.407Z,100.00
2022-09-15T03:33:36.612Z,100.00
2022-09-15T03:36:03.842Z,100.00
2022-09-15T03:38:30.757Z,100.00
2022-09-15T03:41:02.127Z,100.00
2022-09-15T03:43:31.305Z,100.00
2022-09-15T03:45:58.179Z,100.00
2022-09-15T03:48:25.521Z,100.00
2022-09-15T03:50:52.304Z,100.00
2022-09-15T03:53:19.196Z,100.00
2022-09-15T03:55:46.239Z,100.00
2022-09-15T03:58:12.817Z,100.00
2022-09-15T04:00:40.890Z,100.00
2022-09-15T04:03:08.275Z,100.00
2022-09-15T04:05:35.294Z,100.00
2022-09-15T04:08:02.596Z,100.00
2022-09-15T04:10:29.279Z,100.00
2022-09-15T04:12:55.784Z,100.00
2022-09-15T04:15:22.341Z,100.00
2022-09-15T04:17:50.184Z,100.00
2022-09-15T04:20:16.838Z,100.00
2022-09-15T04:22:43.485Z,100.00
2022-09-15T04:25:10.026Z,100.00
2022-09-15T04:27:36.590Z,100.00
2022-09-15T04:30:03.559Z,100.00
2022-09-15T04:32:30.066Z,100.00
2022-09-15T04:34:58.067Z,100.00
2022-09-15T04:37:24.567Z,100.00
2022-09-15T04:39:51.122Z,100.00
2022-09-15T04:42:17.616Z,100.00
2022-09-15T04:44:44.085Z,100.00
2022-09-15T04:47:10.565Z,100.00
2022-09-15T04:49:37.058Z,100.00
2022-09-15T04:52:09.492Z,100.00
2022-09-15T04:54:36.310Z,100.00
2022-09-15T04:57:02.855Z,100.00
2022-09-15T04:59:29.467Z,100.00
2022-09-15T05:01:56.351Z,100.00
2022-09-15T05:04:22.873Z,100.00
2022-09-15T05:06:49.403Z,100.00
2022-09-15T05:09:17.258Z,100.00
2022-09-15T05:11:43.824Z,100.00
2022-09-15T05:14:10.876Z,100.00
2022-09-15T05:16:37.455Z,100.00
2022-09-15T05:19:03.995Z,100.00
2022-09-15T05:21:30.822Z,100.00
2022-09-15T05:23:57.333Z,100.00
2022-09-15T05:26:27.094Z,100.00
2022-09-15T05:28:54.723Z,100.00
2022-09-15T05:31:23.178Z,100.00
2022-09-15T05:33:50.596Z,100.00
2022-09-15T05:36:17.741Z,100.00
2022-09-15T05:38:44.931Z,100.00
2022-09-15T05:41:13.505Z,100.00
2022-09-15T05:43:41.455Z,100.00
2022-09-15T05:46:09.843Z,100.00
2022-09-15T05:48:36.739Z,100.00
2022-09-15T05:51:04.200Z,100.00
2022-09-15T05:53:31.225Z,100.00
2022-09-15T05:55:59.125Z,100.00
2022-09-15T05:58:26.511Z,100.00
2022-09-15T06:00:54.767Z,100.00
2022-09-15T06:03:22.207Z,100.00
2022-09-15T06:05:48.957Z,100.00
2022-09-15T06:08:15.984Z,100.00
2022-09-15T06:10:42.452Z,100.00
2022-09-15T06:13:08.926Z,100.00
2022-09-15T06:15:35.401Z,100.00
2022-09-15T06:18:03.404Z,100.00
2022-09-15T06:20:29.863Z,100.00
2022-09-15T06:22:56.348Z,100.00
2022-09-15T06:25:22.835Z,100.00
2022-09-15T06:27:49.754Z,100.00
2022-09-15T06:30:16.483Z,100.00
2022-09-15T06:32:46.247Z,100.00
2022-09-15T06:35:15.816Z,100.00
2022-09-15T06:37:42.296Z,100.00
2022-09-15T06:40:09.527Z,100.00
2022-09-15T06:42:36.030Z,100.00
2022-09-15T06:45:02.560Z,100.00
2022-09-15T06:47:29.042Z,100.00
2022-09-15T06:49:55.587Z,100.00
2022-09-15T06:52:23.534Z,100.00
2022-09-15T06:54:49.984Z,100.00
2022-09-15T06:57:16.510Z,100.00
2022-09-15T06:59:42.983Z,100.00
2022-09-15T07:02:09.611Z,99.88
2022-09-15T07:04:36.200Z,100.00
2022-09-15T07:07:02.872Z,100.00
2022-09-15T07:09:30.698Z,100.00
2022-09-15T07:11:57.192Z,100.00
2022-09-15T07:14:23.662Z,100.00
2022-09-15T07:16:50.182Z,100.00
2022-09-15T07:19:16.765Z,99.34
2022-09-15T07:21:43.214Z,99.80
2022-09-15T07:24:09.712Z,99.42
2022-09-15T07:26:37.933Z,99.63
2022-09-15T07:29:06.302Z,99.07
2022-09-15T07:31:34.720Z,99.63
2022-09-15T07:34:01.897Z,98.80
2022-09-15T07:36:28.721Z,98.51
2022-09-15T07:38:55.298Z,98.69
2022-09-15T07:41:23.609Z,99.06
2022-09-15T07:43:52.914Z,99.32
2022-09-15T07:46:20.566Z,98.62
2022-09-15T07:48:48.428Z,98.98
2022-09-15T07:51:15.663Z,98.30
2022-09-15T07:53:42.198Z,99.01
2022-09-15T07:56:09.107Z,98.24
2022-09-15T07:58:35.634Z,98.12
2022-09-15T08:01:04.893Z,97.46
2022-09-15T08:03:31.783Z,98.07
2022-09-15T08:05:58.710Z,97.76
2022-09-15T08:08:25.340Z,96.96
2022-09-15T08:10:52.027Z,97.02
2022-09-15T08:13:18.917Z,96.95
2022-09-15T08:15:45.566Z,96.92
2022-09-15T08:18:13.426Z,96.40
2022-09-15T08:20:40.318Z,95.16
2022-09-15T08:23:07.350Z,94.36
2022-09-15T08:25:33.994Z,94.10
2022-09-15T08:28:00.581Z,93.37
2022-09-15T08:30:27.491Z,93.56
2022-09-15T08:32:53.969Z,93.56
2022-09-15T08:35:21.762Z,93.69
2022-09-15T08:37:48.236Z,93.35
2022-09-15T08:40:17.336Z,93.48
2022-09-15T08:42:46.789Z,93.77
2022-09-15T08:45:20.481Z,93.09
2022-09-15T08:47:50.043Z,93.47
2022-09-15T08:50:24.590Z,93.14
2022-09-15T08:52:54.785Z,94.05
2022-09-15T08:55:33.662Z,93.56
2022-09-15T08:58:00.244Z,94.69
2022-09-15T09:00:26.910Z,94.60
2022-09-15T09:03:07.444Z,95.65
2022-09-15T09:05:45.259Z,95.53
2022-09-15T09:08:24.193Z,95.79
2022-09-15T09:10:53.905Z,95.21
2022-09-15T09:13:35.228Z,96.60
2022-09-15T09:16:20.439Z,96.50
2022-09-15T09:18:59.912Z,96.86
2022-09-15T09:21:31.186Z,97.31
2022-09-15T09:24:04.056Z,99.01
2022-09-15T09:26:34.107Z,98.75
2022-09-15T09:29:02.122Z,98.99
2022-09-15T09:31:28.894Z,99.42
2022-09-15T09:34:01.978Z,99.45
2022-09-15T09:36:29.843Z,99.79
2022-09-15T09:38:56.933Z,100.00
2022-09-15T09:41:25.080Z,100.00
2022-09-15T09:43:54.042Z,100.00
2022-09-15T09:46:20.967Z,100.00
2022-09-15T09:48:52.104Z,100.00
2022-09-15T09:51:37.600Z,100.00
2022-09-15T09:54:06.873Z,100.00
2022-09-15T09:56:33.420Z,100.00
2022-09-15T09:59:01.621Z,100.00
2022-09-15T10:01:28.239Z,100.00
2022-09-15T10:04:13.127Z,100.00
2022-09-15T10:06:41.238Z,100.00
2022-09-15T10:09:13.172Z,100.00
2022-09-15T10:11:41.927Z,100.00
2022-09-15T10:14:18.873Z,100.00
2022-09-15T10:16:56.631Z,100.00
2022-09-15T10:19:23.284Z,100.00
2022-09-15T10:21:51.381Z,100.00
2022-09-15T10:24:30.958Z,99.25
2022-09-15T10:27:17.135Z,100.00
2022-09-15T10:29:43.703Z,99.51
2022-09-15T10:32:24.964Z,99.34
2022-09-15T10:35:01.833Z,98.22
2022-09-15T10:37:33.734Z,98.97
2022-09-15T10:40:07.244Z,99.52
2022-09-15T10:42:43.590Z,99.38
2022-09-15T10:45:18.449Z,96.34
2022-09-15T10:48:03.489Z,96.02
2022-09-15T10:50:35.178Z,95.98
2022-09-15T10:53:10.606Z,96.09
2022-09-15T10:55:52.645Z,95.44
2022-09-15T10:58:37.580Z,94.41
2022-09-15T11:01:23.311Z,94.82
2022-09-15T11:04:10.153Z,94.29
2022-09-15T11:06:45.857Z,93.96
2022-09-15T11:09:19.323Z,93.11
2022-09-15T11:11:58.668Z,94.07
2022-09-15T11:14:48.780Z,94.01
2022-09-15T11:17:33.742Z,94.08
2022-09-15T11:20:20.751Z,94.17
2022-09-15T11:22:52.798Z,93.53
2022-09-15T11:25:24.097Z,93.47
2022-09-15T11:27:55.497Z,93.39
2022-09-15T11:30:23.851Z,93.51
2022-09-15T11:32:58.120Z,92.64
2022-09-15T11:35:42.253Z,92.55
2022-09-15T11:38:26.257Z,92.02
2022-09-15T11:40:59.019Z,91.81
2022-09-15T11:43:32.467Z,91.71
2022-09-15T11:46:05.278Z,91.71
2022-09-15T11:48:36.275Z,91.90
2022-09-15T11:51:06.569Z,94.07
2022-09-15T11:53:38.054Z,91.97
2022-09-15T11:56:15.494Z,91.47
2022-09-15T11:58:57.909Z,90.42
2022-09-15T12:01:28.978Z,90.73
2022-09-15T12:03:58.839Z,90.01
2022-09-15T12:06:32.921Z,92.71
2022-09-15T12:09:02.017Z,91.77
2022-09-15T12:11:34.449Z,91.23
2022-09-15T12:14:03.996Z,90.06
2022-09-15T12:16:33.166Z,90.81
2022-09-15T12:19:05.443Z,90.46
2022-09-15T12:21:36.639Z,90.18
2022-09-15T12:24:12.874Z,89.32
2022-09-15T12:26:42.030Z,88.77
2022-09-15T12:29:30.169Z,86.33
2022-09-15T12:32:21.663Z,88.31
2022-09-15T12:35:10.113Z,89.37
2022-09-15T12:37:42.067Z,88.54
2022-09-15T12:40:28.386Z,89.62
2022-09-15T12:42:57.007Z,90.36
2022-09-15T12:45:27.251Z,91.82
2022-09-15T12:47:57.288Z,91.77
2022-09-15T12:50:29.649Z,91.60
2022-09-15T12:52:59.554Z,92.35
2022-09-15T12:55:28.648Z,90.65
2022-09-15T12:57:59.643Z,89.57
2022-09-15T13:00:35.069Z,87.98
2022-09-15T13:03:02.421Z,87.32
2022-09-15T13:06:05.566Z,89.27
2022-09-15T13:08:55.427Z,89.13
2022-09-15T13:11:31.584Z,89.22
2022-09-15T13:14:11.001Z,88.36
2022-09-15T13:16:46.350Z,87.74
2022-09-15T13:19:16.906Z,90.88
2022-09-15T13:21:49.018Z,91.86
2022-09-15T13:24:21.343Z,91.36
2022-09-15T13:26:51.715Z,91.26
2022-09-15T13:29:21.649Z,92.96
2022-09-15T13:31:54.964Z,93.14
2022-09-15T13:35:04.123Z,93.47
2022-09-15T13:38:06.775Z,92.89
2022-09-15T13:40:59.814Z,92.91
2022-09-15T13:43:58.074Z,93.06
2022-09-15T13:46:37.851Z,93.06
2022-09-15T13:49:23.847Z,91.83
2022-09-15T13:51:56.469Z,93.11
2022-09-15T13:54:22.958Z,92.90
2022-09-15T13:56:49.659Z,92.75
2022-09-15T13:59:18.771Z,92.18
2022-09-15T14:01:46.948Z,92.17
2022-09-15T14:04:15.961Z,91.88
2022-09-15T14:06:45.482Z,90.98
2022-09-15T14:09:16.266Z,91.10
2022-09-15T14:11:45.819Z,89.98
2022-09-15T14:14:31.240Z,90.84
2022-09-15T14:16:59.156Z,91.33
2022-09-15T14:19:32.762Z,91.47
2022-09-15T14:21:59.885Z,91.95
2022-09-15T14:24:28.840Z,91.20
2022-09-15T14:26:56.986Z,91.99
2022-09-15T14:29:23.615Z,91.83
2022-09-15T14:31:50.512Z,91.66
2022-09-15T14:34:20.869Z,92.09
2022-09-15T14:36:59.111Z,92.01
2022-09-15T14:39:25.642Z,92.04
2022-09-15T14:41:52.300Z,92.03
2022-09-15T14:47:11.939Z,90.88
2022-09-15T14:49:39.773Z,91.08
2022-09-15T14:52:22.712Z,91.35
2022-09-15T14:54:51.383Z,91.60
2022-09-15T14:57:22.404Z,92.68
2022-09-15T14:59:52.753Z,92.10
2022-09-15T15:02:25.771Z,92.48
2022-09-15T15:04:58.517Z,91.85
2022-09-15T15:07:27.415Z,92.95
2022-09-15T15:09:57.635Z,92.93
2022-09-15T15:12:26.921Z,91.83
2022-09-15T15:14:54.906Z,92.09
2022-09-15T15:17:33.291Z,92.18
2022-09-15T15:20:12.930Z,93.87
2022-09-15T15:22:41.434Z,93.87
2022-09-15T15:25:25.403Z,94.35
2022-09-15T15:27:53.209Z,93.73
2022-09-15T15:30:25.582Z,93.24
2022-09-15T15:32:52.644Z,91.83
2022-09-15T15:35:20.979Z,92.22
2022-09-15T15:37:47.566Z,91.64
2022-09-15T15:40:16.732Z,91.13
2022-09-15T15:42:52.216Z,92.29
2022-09-15T15:45:23.351Z,92.74
2022-09-15T15:47:49.979Z,93.04
2022-09-15T15:50:18.439Z,93.71
2022-09-15T15:52:47.030Z,93.55
2022-09-15T15:55:14.680Z,93.68
2022-09-15T15:57:41.338Z,94.14
2022-09-15T16:00:21.048Z,95.00
2022-09-15T16:02:48.252Z,93.78
2022-09-15T16:05:15.002Z,93.76
2022-09-15T16:07:44.187Z,93.21
2022-09-15T16:10:15.413Z,94.10
2022-09-15T16:12:41.932Z,94.51
2022-09-15T16:15:11.786Z,93.55
2022-09-15T16:17:39.987Z,93.36
2022-09-15T16:20:09.962Z,93.47
2022-09-15T16:22:37.238Z,92.52
2022-09-15T16:25:14.228Z,91.91
2022-09-15T16:27:40.865Z,91.90
2022-09-15T16:30:08.957Z,91.96
2022-09-15T16:32:35.463Z,92.47
2022-09-15T16:35:08.896Z,92.83
2022-09-15T16:37:35.391Z,93.11
2022-09-15T16:40:02.185Z,92.56
2022-09-15T16:42:30.059Z,93.37
2022-09-15T16:44:56.585Z,93.98
2022-09-15T16:47:23.069Z,93.65
2022-09-15T16:49:49.602Z,94.17
2022-09-15T16:52:16.129Z,93.77
2022-09-15T16:54:42.621Z,93.68
2022-09-15T16:57:09.106Z,93.75
2022-09-15T16:59:36.970Z,93.38
2022-09-15T17:02:05.533Z,93.54
2022-09-15T17:04:32.074Z,94.01
2022-09-15T17:06:58.569Z,94.35
2022-09-15T17:09:25.070Z,94.49
2022-09-15T17:11:53.081Z,95.41
2022-09-15T17:14:19.592Z,95.97
2022-09-15T17:16:47.684Z,96.12
2022-09-15T17:19:14.230Z,95.62
2022-09-15T17:21:40.755Z,95.45
2022-09-15T17:24:09.176Z,95.65
2022-09-15T17:26:35.737Z,95.82
2022-09-15T17:29:02.271Z,95.81
2022-09-15T17:31:28.820Z,95.44
2022-09-15T17:33:56.717Z,95.84
2022-09-15T17:36:23.241Z,95.71
2022-09-15T17:38:49.780Z,95.62
2022-09-15T17:41:18.237Z,95.86
2022-09-15T17:43:45.125Z,96.34
2022-09-15T17:46:11.974Z,95.59
2022-09-15T17:48:38.573Z,95.77
2022-09-15T17:51:07.231Z,95.85
2022-09-15T17:53:34.134Z,96.02
2022-09-15T17:56:00.867Z,95.61
2022-09-15T17:58:27.439Z,96.22
2022-09-15T18:00:54.053Z,97.21
2022-09-15T18:03:23.104Z,97.48
2022-09-15T18:05:50.500Z,98.00
2022-09-15T18:08:18.502Z,98.01
2022-09-15T18:10:45.359Z,98.27
2022-09-15T18:13:14.925Z,99.40
2022-09-15T18:15:41.668Z,100.00
2022-09-15T18:18:12.944Z,100.00
2022-09-15T18:20:39.553Z,100.00
2022-09-15T18:23:06.033Z,100.00
2022-09-15T18:25:36.579Z,100.00
2022-09-15T18:28:03.950Z,100.00
2022-09-15T18:30:32.883Z,100.00
2022-09-15T18:32:59.695Z,100.00
2022-09-15T18:35:26.562Z,100.00
2022-09-15T18:37:55.521Z,100.00
2022-09-15T18:40:22.051Z,100.00
2022-09-15T18:42:49.953Z,100.00
2022-09-15T18:45:18.194Z,100.00
2022-09-15T18:47:47.156Z,100.00
2022-09-15T18:50:13.712Z,100.00
2022-09-15T18:52:41.423Z,100.00
2022-09-15T18:55:15.222Z,100.00
2022-09-15T18:57:42.856Z,100.00
2022-09-15T19:00:13.837Z,100.00
2022-09-15T19:02:40.688Z,100.00
2022-09-15T19:05:08.129Z,100.00
2022-09-15T19:07:34.666Z,100.00
2022-09-15T19:10:01.177Z,100.00
2022-09-15T19:12:27.692Z,100.00
2022-09-15T19:14:54.218Z,100.00
2022-09-15T19:17:22.117Z,100.00
2022-09-15T19:19:49.202Z,100.00
2022-09-15T19:22:15.841Z,100.00
2022-09-15T19:24:42.330Z,100.00
2022-09-15T19:27:09.148Z,100.00
2022-09-15T19:29:37.421Z,99.56
2022-09-15T19:32:06.449Z,99.48
2022-09-15T19:34:34.995Z,99.28
2022-09-15T19:37:01.654Z,98.77
2022-09-15T19:39:28.281Z,98.49
2022-09-15T19:41:54.853Z,98.61
2022-09-15T19:44:21.375Z,98.23
2022-09-15T19:46:47.935Z,98.29
2022-09-15T19:49:14.745Z,98.12
2022-09-15T19:51:42.621Z,98.44
2022-09-15T19:54:09.346Z,98.47
2022-09-15T19:56:36.418Z,98.19
2022-09-15T19:59:05.170Z,98.20
2022-09-15T20:01:32.051Z,98.07
2022-09-15T20:03:58.984Z,98.26
2022-09-15T20:06:28.918Z,98.16
2022-09-15T20:09:00.106Z,98.34
2022-09-15T20:11:28.041Z,97.69
2022-09-15T20:13:54.856Z,97.54
2022-09-15T20:16:23.094Z,97.03
2022-09-15T20:18:50.978Z,96.47
2022-09-15T20:21:32.653Z,96.58
2022-09-15T20:24:08.287Z,97.14
2022-09-15T20:26:34.865Z,96.93
2022-09-15T20:29:02.461Z,96.12
2022-09-15T20:31:30.274Z,96.23
2022-09-15T20:33:56.767Z,96.51
2022-09-15T20:36:25.163Z,96.83
2022-09-15T20:38:53.271Z,97.18
2022-09-15T20:41:23.725Z,97.30
2022-09-15T20:43:51.140Z,97.04
2022-09-15T20:46:20.018Z,96.77
2022-09-15T20:48:47.139Z,96.58
2022-09-15T20:51:16.182Z,96.12
2022-09-15T20:53:44.748Z,96.07
2022-09-15T20:56:12.132Z,96.10
2022-09-15T20:58:40.575Z,95.93
2022-09-15T21:01:09.578Z,95.66
2022-09-15T21:03:37.898Z,96.03
2022-09-15T21:06:06.605Z,96.45
2022-09-15T21:08:33.859Z,96.00
2022-09-15T21:11:00.694Z,96.04
2022-09-15T21:13:28.315Z,96.33
2022-09-15T21:15:57.346Z,97.06
2022-09-15T21:18:24.920Z,96.83
2022-09-15T21:20:55.452Z,97.05
2022-09-15T21:23:22.104Z,97.08
2022-09-15T21:25:59.950Z,97.06
2022-09-15T21:28:28.959Z,97.18
2022-09-15T21:31:01.956Z,97.20
2022-09-15T21:33:28.528Z,98.03
2022-09-15T21:36:01.993Z,98.35
2022-09-15T21:38:28.485Z,98.47
2022-09-15T21:40:55.004Z,97.84
2022-09-15T21:43:21.770Z,98.07
2022-09-15T21:45:48.305Z,97.55
2022-09-15T21:48:16.403Z,97.74
2022-09-15T21:50:49.222Z,97.86
2022-09-15T21:53:15.746Z,97.62
2022-09-15T21:55:42.286Z,98.00
2022-09-15T21:58:08.827Z,98.15
2022-09-15T22:00:36.119Z,97.93
2022-09-15T22:03:02.733Z,97.98
2022-09-15T22:08:16.126Z,98.28
2022-09-15T22:10:43.870Z,98.43
2022-09-15T22:13:11.503Z,97.75
2022-09-15T22:15:38.029Z,97.85
2022-09-15T22:18:04.933Z,98.26
2022-09-15T22:20:32.775Z,98.37
2022-09-15T22:23:00.397Z,98.45
2022-09-15T22:25:27.162Z,98.32
2022-09-15T22:27:53.733Z,98.24
2022-09-15T22:30:20.260Z,98.01
2022-09-15T22:32:46.803Z,97.52
2022-09-15T22:35:13.352Z,97.61
2022-09-15T22:37:41.223Z,97.87
2022-09-15T22:40:08.754Z,98.25
2022-09-15T22:42:35.378Z,98.74
2022-09-15T22:45:01.901Z,98.54
2022-09-15T22:47:28.418Z,98.52
2022-09-15T22:49:54.944Z,98.27
2022-09-15T22:52:21.455Z,98.31
2022-09-15T22:54:49.319Z,97.99
2022-09-15T22:57:15.823Z,97.88
2022-09-15T22:59:42.305Z,97.66
2022-09-15T23:02:08.966Z,98.00
2022-09-15T23:04:35.598Z,97.98
2022-09-15T23:07:02.138Z,97.83
2022-09-15T23:09:28.688Z,97.49
2022-09-15T23:11:56.567Z,97.67
2022-09-15T23:14:23.032Z,97.71
2022-09-15T23:16:49.555Z,97.94
2022-09-15T23:19:16.038Z,98.53
2022-09-15T23:21:42.583Z,99.03
2022-09-15T23:24:09.077Z,98.97
2022-09-15T23:26:35.601Z,99.23
2022-09-15T23:29:03.453Z,99.23
2022-09-15T23:31:30.005Z,98.26
2022-09-15T23:33:56.545Z,97.91
2022-09-15T23:36:23.082Z,97.90
2022-09-15T23:38:49.606Z,97.85
2022-09-15T23:41:17.078Z,98.25
2022-09-15T23:43:44.076Z,98.10
2022-09-15T23:46:12.075Z,98.30
2022-09-15T23:48:38.984Z,98.35
2022-09-15T23:51:06.150Z,98.38
2022-09-15T23:53:33.337Z,98.44
2022-09-15T23:55:59.881Z,98.03
2022-09-15T23:58:26.529Z,98.26
